Terminal Aerodrome Forecast
Issued by NWS Norman, OK

Home | Current Version | Previous Version | Text Only | Print | Product List | Glossary On
Versions: 1 2 3 4 5 6 7 8 9 10 11 12 13 14 15 16 17
000
FTUS44 KOUN 261123
TAFOKC
TAF
KOKC 261123Z 2612/2712 32005KT P6SM FEW250
      TEMPO 2612/2614 4SM BR
     FM270300 34011KT P6SM BKN080=

USA.gov is the U.S. government's official web portal to all federal, state and local government web resources and services.